Time;durP1;ratioP1;P1;durP2;ratioP2;P2;SDS_P1;SDS_P2;PMS_P1;PMS_P2;Temp;Humidity;BMP_temperature;BMP_pressure;BME280_temperature;BME280_humidity;BME280_pressure;Samples;Min_cycle;Max_cycle;Signal;HPM_P1;HPM_P2
2021/10/31 18:19:22;;;;;;;;;;;;;;;15.87;79.73;99152.84;1013714;27;1192135;-67
2021/10/31 18:20:16;;;;;;;;;;;;;;;15.92;80.31;99150.50;1056425;28;792;-70
2021/10/31 18:21:07;;;;;;;;;;;;;;;16.03;79.85;99143.03;1056628;28;777;-69
2021/10/31 18:21:57;;;;;;;;;;;;;;;16.04;79.33;99142.84;1056137;28;610;-67
2021/10/31 18:22:47;;;;;;;;;;;;;;;16.03;79.80;99135.81;1056962;28;881;-65
2021/10/31 18:23:39;;;;;;;;;;;;;;;16.05;79.99;99139.16;1056035;28;801;-66
2021/10/31 18:24:29;;;;;;;;;;;;;;;16.09;80.16;99127.06;1056134;28;867;-67
2021/10/31 18:25:19;;;;;;;;;;;;;;;16.13;80.20;99139.09;1056558;28;787;-67
2021/10/31 18:26:10;;;;;;;;;;;;;;;16.14;79.74;99135.41;1056239;28;664;-67
2021/10/31 18:27:01;;;;;;;;;;;;;;;16.17;79.93;99140.44;1056977;28;878;-66
2021/10/31 18:27:51;;;;;;;;;;;;;;;16.28;80.01;99148.09;1056145;28;771;-67
2021/10/31 18:28:42;;;;;;;;;;;;;;;16.37;80.01;99143.50;1056081;28;738;-73
2021/10/31 18:29:32;;;;;;;;;;;;;;;16.39;79.87;99144.16;1055124;28;1826;-71
2021/10/31 18:30:23;;;;;;;;;;;;;;;16.33;79.71;99145.69;1056563;28;639;-71
2021/10/31 18:31:13;;;;;;;;;;;;;;;16.31;80.13;99146.88;1056261;28;842;-71
2021/10/31 18:32:04;;;;;;;;;;;;;;;16.24;80.15;99152.16;1056173;28;1527;-70
2021/10/31 18:32:54;;;;;;;;;;;;;;;16.18;79.81;99152.00;1055590;28;1410;-69
2021/10/31 18:33:44;;;;;;;;;;;;;;;16.12;80.32;99153.53;1055279;28;1358;-71
2021/10/31 18:34:35;;;;;;;;;;;;;;;16.09;79.98;99156.63;1055710;28;1382;-70
2021/10/31 18:35:25;;;;;;;;;;;;;;;16.06;80.56;99156.97;1054389;28;1385;-69
2021/10/31 18:36:16;;;;;;;;;;;;;;;16.05;80.00;99159.81;1054119;28;1306;-68
2021/10/31 18:37:07;;;;;;;;;;;;;;;16.02;80.23;99163.69;1052427;28;850;-69
2021/10/31 18:37:57;;;;;;;;;;;;;;;16.00;80.64;99159.50;1048354;28;716;-68
2021/10/31 18:38:48;;;;;;;;;;;;;;;15.97;80.27;99160.69;1047969;28;797;-69
2021/10/31 18:39:38;;;;;;;;;;;;;;;15.96;80.66;99159.00;1051952;28;697;-67
2021/10/31 18:40:29;;;;;;;;;;;;;;;15.94;80.23;99161.88;1052114;28;853;-69
2021/10/31 18:41:19;;;;;;;;;;;;;;;15.92;80.31;99163.91;1051846;28;2114;-68
2021/10/31 18:42:10;;;;;;;;;;;;;;;15.91;80.78;99156.88;1048607;28;870;-66
2021/10/31 18:43:00;;;;;;;;;;;;;;;15.91;80.64;99156.88;1051265;28;1544;-69
2021/10/31 18:43:51;;;;;;;;;;;;;;;15.90;80.24;99149.81;1052182;28;1609;-69
2021/10/31 18:44:44;;;;;;;;;;;;;;;15.89;80.55;99141.94;1051433;28;1449;-69
2021/10/31 18:45:34;;;;;;;;;;;;;;;15.88;80.29;99151.84;1048686;28;871;-70
2021/10/31 18:46:25;;;;;;;;;;;;;;;15.88;80.65;99151.00;1051904;28;1580;-69
2021/10/31 18:47:15;;;;;;;;;;;;;;;15.89;80.59;99150.00;1050444;28;1483;-68
2021/10/31 18:48:06;;;;;;;;;;;;;;;15.88;80.67;99162.59;1051891;28;1500;-67
2021/10/31 18:48:56;;;;;;;;;;;;;;;15.88;80.56;99161.75;1051954;28;1643;-68
2021/10/31 18:49:47;;;;;;;;;;;;;;;15.88;80.49;99164.44;1051925;28;1579;-68
2021/10/31 18:50:38;;;;;;;;;;;;;;;15.87;80.70;99168.97;1050828;28;1349;-69
2021/10/31 18:51:28;;;;;;;;;;;;;;;15.86;80.79;99175.34;1048688;28;965;-69
2021/10/31 18:52:19;;;;;;;;;;;;;;;15.86;80.13;99174.50;1048130;28;662;-69
2021/10/31 18:53:10;;;;;;;;;;;;;;;15.87;80.64;99165.44;1051313;28;1572;-69
2021/10/31 18:54:00;;;;;;;;;;;;;;;15.87;80.35;99165.44;1052190;28;2003;-69
2021/10/31 18:54:50;;;;;;;;;;;;;;;15.87;80.45;99150.16;1051364;28;1516;-70
2021/10/31 18:55:41;;;;;;;;;;;;;;;15.87;80.56;99154.69;1046215;28;1378;-69
2021/10/31 18:56:32;;;;;;;;;;;;;;;15.87;80.29;99160.06;1044739;28;734;-69
2021/10/31 18:57:22;;;;;;;;;;;;;;;15.86;80.64;99159.25;1049292;28;841;-70
2021/10/31 18:58:12;;;;;;;;;;;;;;;15.88;80.34;99170.66;1047218;28;996;-70
2021/10/31 18:59:03;;;;;;;;;;;;;;;15.89;80.54;99163.44;1047463;28;1969;-70
2021/10/31 18:59:53;;;;;;;;;;;;;;;15.89;80.11;99166.94;1047807;28;790;-70
2021/10/31 19:00:44;;;;;;;;;;;;;;;15.90;80.18;99175.84;1051020;28;2005;-70
2021/10/31 19:01:35;;;;;;;;;;;;;;;15.91;80.34;99170.31;1050844;28;1725;-70
2021/10/31 19:02:26;;;;;;;;;;;;;;;15.91;80.13;99166.78;1050995;28;1752;-71
2021/10/31 19:03:16;;;;;;;;;;;;;;;15.91;80.14;99172.16;1049872;28;1553;-70
2021/10/31 19:04:07;;;;;;;;;;;;;;;15.90;80.23;99155.19;1049104;28;1459;-70
2021/10/31 19:04:59;;;;;;;;;;;;;;;15.90;80.50;99163.25;1052716;28;1520;-72
2021/10/31 19:05:49;;;;;;;;;;;;;;;15.91;80.12;99161.41;1052880;28;918;-71
2021/10/31 19:06:40;;;;;;;;;;;;;;;15.93;80.14;99159.38;1051637;28;1822;-71
2021/10/31 19:07:30;;;;;;;;;;;;;;;15.92;80.37;99150.50;1044153;28;786;-71
2021/10/31 19:08:21;;;;;;;;;;;;;;;15.93;79.72;99152.16;1044695;28;974;-71
2021/10/31 19:09:12;;;;;;;;;;;;;;;15.93;80.12;99148.63;1049126;28;649;-71
2021/10/31 19:10:02;;;;;;;;;;;;;;;15.93;80.18;99148.63;1044216;28;814;-71
2021/10/31 19:10:53;;;;;;;;;;;;;;;15.93;79.81;99154.00;1043520;28;717;-70
2021/10/31 19:11:43;;;;;;;;;;;;;;;15.94;80.03;99145.75;1051332;28;2365;-71
2021/10/31 19:12:34;;;;;;;;;;;;;;;15.94;80.01;99151.13;1052008;28;954;-71
2021/10/31 19:13:24;;;;;;;;;;;;;;;15.94;80.06;99150.31;1048307;28;1744;-71
2021/10/31 19:14:15;;;;;;;;;;;;;;;15.95;79.76;99151.97;1045650;28;1608;-71
2021/10/31 19:15:06;;;;;;;;;;;;;;;15.94;80.02;99155.69;1050921;28;1678;-71
2021/10/31 19:15:56;;;;;;;;;;;;;;;15.94;80.29;99155.69;1053868;28;1422;-71
2021/10/31 19:16:46;;;;;;;;;;;;;;;15.94;80.19;99153.00;1052307;28;1835;-71
2021/10/31 19:17:37;;;;;;;;;;;;;;;15.93;80.09;99141.41;1049136;28;793;-71
2021/10/31 19:18:27;;;;;;;;;;;;;;;15.94;79.86;99139.56;1051759;28;1568;-71
2021/10/31 19:19:18;;;;;;;;;;;;;;;15.93;79.89;99137.91;1049379;28;1956;-71
2021/10/31 19:20:08;;;;;;;;;;;;;;;15.92;79.97;99139.75;1052347;28;1996;-71
2021/10/31 19:20:59;;;;;;;;;;;;;;;15.92;79.90;99136.22;1053267;28;774;-71
2021/10/31 19:21:50;;;;;;;;;;;;;;;15.93;80.24;99143.25;1053193;28;1966;-70
2021/10/31 19:22:41;;;;;;;;;;;;;;;15.91;80.07;99138.06;1049070;28;773;-71
2021/10/31 19:23:31;;;;;;;;;;;;;;;15.91;80.05;99145.28;1048138;28;719;-71
2021/10/31 19:24:23;;;;;;;;;;;;;;;15.90;80.23;99146.28;1049239;28;668;-70
2021/10/31 19:25:13;;;;;;;;;;;;;;;15.88;80.30;99146.47;1048003;28;872;-70
2021/10/31 19:26:04;;;;;;;;;;;;;;;15.89;79.77;99148.16;1047965;28;602;-70
2021/10/31 19:26:54;;;;;;;;;;;;;;;15.90;79.77;99143.59;1049083;28;895;-71
2021/10/31 19:27:45;;;;;;;;;;;;;;;15.90;80.14;99154.34;1048369;28;704;-71
2021/10/31 19:28:38;;;;;;;;;;;;;;;15.91;79.79;99159.56;1049136;28;783;-70
2021/10/31 19:29:28;;;;;;;;;;;;;;;15.90;79.69;99159.72;1048099;28;965;-70
2021/10/31 19:30:19;;;;;;;;;;;;;;;15.91;79.60;99161.41;1049757;28;597;-70
2021/10/31 19:31:12;;;;;;;;;;;;;;;15.91;79.63;99169.47;1045991;28;1016;-70
2021/10/31 19:32:03;;;;;;;;;;;;;;;15.90;79.84;99165.94;1045753;28;919;-70
2021/10/31 19:32:53;;;;;;;;;;;;;;;15.90;79.82;99170.47;1051149;28;861;-70
2021/10/31 19:33:44;;;;;;;;;;;;;;;15.89;79.74;99179.53;1050381;28;789;-70
2021/10/31 19:34:34;;;;;;;;;;;;;;;15.89;80.09;99182.22;1046203;28;644;-70
2021/10/31 19:35:25;;;;;;;;;;;;;;;15.89;79.87;99182.22;1047954;28;1913;-71
2021/10/31 19:36:16;;;;;;;;;;;;;;;15.89;79.88;99191.13;1050326;28;1203;-70
2021/10/31 19:37:06;;;;;;;;;;;;;;;15.90;80.11;99191.97;1050333;28;2179;-70
2021/10/31 19:37:57;;;;;;;;;;;;;;;15.89;80.10;99188.44;1045428;28;774;-70
2021/10/31 19:38:49;;;;;;;;;;;;;;;15.88;79.61;99188.63;1046608;28;1938;-71
2021/10/31 19:39:39;;;;;;;;;;;;;;;15.88;79.52;99188.63;1050367;28;874;-71
2021/10/31 19:40:30;;;;;;;;;;;;;;;15.89;79.73;99190.28;1049804;28;2228;-70
2021/10/31 19:41:20;;;;;;;;;;;;;;;15.88;79.76;99193.97;1050541;28;952;-70
2021/10/31 19:42:11;;;;;;;;;;;;;;;15.86;79.79;99190.63;1046766;28;1942;-70
2021/10/31 19:43:01;;;;;;;;;;;;;;;15.87;79.90;99190.47;1046070;28;1587;-71
2021/10/31 19:43:52;;;;;;;;;;;;;;;15.86;79.88;99190.63;1048693;28;1703;-71
2021/10/31 19:44:42;;;;;;;;;;;;;;;15.86;79.90;99193.31;1046155;28;1364;-70
2021/10/31 19:45:33;;;;;;;;;;;;;;;15.87;79.79;99186.94;1047759;28;1605;-70
2021/10/31 19:46:24;;;;;;;;;;;;;;;15.86;79.40;99187.94;1046104;28;1489;-70
2021/10/31 19:47:15;;;;;;;;;;;;;;;15.85;79.84;99189.78;1045541;28;1567;-70
2021/10/31 19:48:05;;;;;;;;;;;;;;;15.85;79.55;99191.63;1045394;28;1441;-70
2021/10/31 19:48:56;;;;;;;;;;;;;;;15.84;80.00;99192.66;1046936;28;1654;-70
2021/10/31 19:49:46;;;;;;;;;;;;;;;15.85;79.93;99191.63;1045536;28;1465;-70
2021/10/31 19:50:36;;;;;;;;;;;;;;;15.84;79.79;99198.03;1048088;28;1555;-71
2021/10/31 19:51:27;;;;;;;;;;;;;;;15.83;79.98;99199.88;1047902;28;1615;-70
2021/10/31 19:52:17;;;;;;;;;;;;;;;15.83;79.67;99196.34;1046485;28;1475;-70
2021/10/31 19:53:08;;;;;;;;;;;;;;;15.83;79.98;99202.56;1047530;28;1387;-70
2021/10/31 19:53:58;;;;;;;;;;;;;;;15.82;79.72;99200.88;1046992;28;1481;-70
2021/10/31 19:54:49;;;;;;;;;;;;;;;15.81;80.04;99207.25;1046751;28;1372;-70
2021/10/31 19:55:39;;;;;;;;;;;;;;;15.82;79.81;99208.09;1048297;28;1580;-71
2021/10/31 19:56:34;;;;;;;;;;;;;;;15.81;79.49;99193.84;1047013;28;1484;-70
2021/10/31 19:57:24;;;;;;;;;;;;;;;15.81;79.63;99201.03;1048360;28;1501;-70
2021/10/31 19:58:14;;;;;;;;;;;;;;;15.82;79.47;99210.78;1045547;28;885;-70
2021/10/31 19:59:05;;;;;;;;;;;;;;;15.81;79.75;99201.03;1046101;28;2058;-69
2021/10/31 19:59:56;;;;;;;;;;;;;;;15.80;79.82;99210.94;1045869;28;840;-70
2021/10/31 20:00:46;;;;;;;;;;;;;;;15.78;79.68;99204.91;1045640;28;1347;-70
2021/10/31 20:01:38;;;;;;;;;;;;;;;15.79;79.84;99200.38;1045766;28;1813;-70
2021/10/31 20:02:29;;;;;;;;;;;;;;;15.79;79.40;99203.91;1048213;28;1268;-70
2021/10/31 20:03:19;;;;;;;;;;;;;;;15.79;79.44;99205.75;1047839;28;1589;-71
2021/10/31 20:04:10;;;;;;;;;;;;;;;15.78;79.70;99206.75;1046665;28;1349;-70
2021/10/31 20:05:00;;;;;;;;;;;;;;;15.77;79.84;99192.50;1046552;28;1402;-70
2021/10/31 20:05:51;;;;;;;;;;;;;;;15.77;79.50;99205.09;1050192;28;1453;-70
2021/10/31 20:06:41;;;;;;;;;;;;;;;15.77;79.55;99199.72;1046240;28;1490;-70
2021/10/31 20:07:32;;;;;;;;;;;;;;;15.77;79.54;99213.97;1046696;28;801;-70
2021/10/31 20:08:25;;;;;;;;;;;;;;;15.78;79.49;99212.13;1049852;28;656;-70
2021/10/31 20:09:19;;;;;;;;;;;;;;;15.77;79.16;99213.16;1046193;28;1760;-70
2021/10/31 20:10:10;;;;;;;;;;;;;;;15.77;79.84;99218.50;1050067;28;1716;-70
2021/10/31 20:11:01;;;;;;;;;;;;;;;15.76;79.94;99212.34;1046417;28;2314;-70
2021/10/31 20:11:52;;;;;;;;;;;;;;;15.77;79.55;99213.16;1046037;28;1361;-70
2021/10/31 20:12:42;;;;;;;;;;;;;;;15.75;79.37;99216.03;1046223;28;1490;-70
2021/10/31 20:13:33;;;;;;;;;;;;;;;15.76;79.28;99219.56;1047339;28;1570;-70
2021/10/31 20:14:24;;;;;;;;;;;;;;;15.76;79.49;99216.88;1045965;28;1608;-70
2021/10/31 20:15:14;;;;;;;;;;;;;;;15.74;79.67;99216.19;1048172;28;1723;-70
2021/10/31 20:16:04;;;;;;;;;;;;;;;15.75;79.31;99220.56;1046333;28;1445;-70
2021/10/31 20:16:55;;;;;;;;;;;;;;;15.74;79.87;99221.56;1046305;28;1359;-69
2021/10/31 20:17:45;;;;;;;;;;;;;;;15.73;79.45;99218.03;1046912;28;1508;-70
2021/10/31 20:18:36;;;;;;;;;;;;;;;15.74;79.75;99213.50;1046741;28;1490;-70
2021/10/31 20:19:26;;;;;;;;;;;;;;;15.74;79.43;99214.34;1047681;28;1961;-70
2021/10/31 20:20:17;;;;;;;;;;;;;;;15.73;79.47;99217.22;1049533;28;1404;-69
2021/10/31 20:21:08;;;;;;;;;;;;;;;15.74;79.50;99224.25;1049860;28;1593;-70
2021/10/31 20:21:59;;;;;;;;;;;;;;;15.73;79.53;99214.53;1045332;28;1490;-70
2021/10/31 20:22:49;;;;;;;;;;;;;;;15.73;79.86;99217.22;1046123;28;1473;-69
2021/10/31 20:23:40;;;;;;;;;;;;;;;15.73;79.44;99218.03;1046737;28;1415;-70
2021/10/31 20:24:30;;;;;;;;;;;;;;;15.73;79.24;99217.22;1045399;28;1502;-69
2021/10/31 20:25:21;;;;;;;;;;;;;;;15.73;79.48;99217.22;1047503;28;1736;-69
2021/10/31 20:26:11;;;;;;;;;;;;;;;15.72;79.42;99218.22;1048432;28;1588;-69
2021/10/31 20:27:02;;;;;;;;;;;;;;;15.72;79.52;99223.59;1049206;28;1575;-69
2021/10/31 20:27:56;;;;;;;;;;;;;;;15.72;79.47;99223.59;1047496;28;1396;-69
2021/10/31 20:28:46;;;;;;;;;;;;;;;15.71;79.28;99220.06;1045402;28;1521;-70
2021/10/31 20:29:37;;;;;;;;;;;;;;;15.71;79.71;99219.22;1046830;28;1359;-69
2021/10/31 20:30:28;;;;;;;;;;;;;;;15.71;79.49;99216.53;1048413;28;1288;-70
2021/10/31 20:31:19;;;;;;;;;;;;;;;15.71;79.40;99219.22;1049391;28;1548;-70
2021/10/31 20:32:09;;;;;;;;;;;;;;;15.72;79.28;99226.28;1049386;28;1631;-70
2021/10/31 20:33:01;;;;;;;;;;;;;;;15.70;79.37;99226.44;1047438;28;1452;-69
2021/10/31 20:33:51;;;;;;;;;;;;;;;15.70;79.63;99226.44;1045796;28;1763;-70
2021/10/31 20:34:42;;;;;;;;;;;;;;;15.71;79.55;99224.59;1047187;28;1520;-70
2021/10/31 20:35:32;;;;;;;;;;;;;;;15.71;79.24;99233.50;1046083;28;1793;-69
2021/10/31 20:36:25;;;;;;;;;;;;;;;15.71;79.35;99235.34;1046259;28;1577;-69
2021/10/31 20:37:16;;;;;;;;;;;;;;;15.70;79.18;99229.13;1048154;28;1593;-70
2021/10/31 20:38:08;;;;;;;;;;;;;;;15.70;79.13;99236.34;1048239;28;1222;-69
2021/10/31 20:38:59;;;;;;;;;;;;;;;15.71;79.75;99235.34;1048823;28;1941;-70
2021/10/31 20:39:50;;;;;;;;;;;;;;;15.70;79.29;99233.66;1048981;28;719;-69
2021/10/31 20:40:40;;;;;;;;;;;;;;;15.70;79.41;99239.88;1047055;28;1521;-70
2021/10/31 20:41:31;;;;;;;;;;;;;;;15.69;79.34;99240.88;1046378;28;1710;-70
2021/10/31 20:42:21;;;;;;;;;;;;;;;15.70;79.74;99233.66;1047074;28;1568;-69
2021/10/31 20:43:12;;;;;;;;;;;;;;;15.70;79.22;99242.56;1047070;28;1681;-69
2021/10/31 20:44:02;;;;;;;;;;;;;;;15.69;79.41;99242.72;1047543;28;1484;-69
2021/10/31 20:44:53;;;;;;;;;;;;;;;15.68;79.33;99241.03;1046143;28;1683;-69
2021/10/31 20:45:43;;;;;;;;;;;;;;;15.68;79.08;99246.41;1047254;28;1742;-69
2021/10/31 20:46:34;;;;;;;;;;;;;;;15.68;79.20;99243.72;1045843;28;1502;-69
2021/10/31 20:47:24;;;;;;;;;;;;;;;15.68;79.36;99241.03;1048019;28;1473;-69
2021/10/31 20:48:15;;;;;;;;;;;;;;;15.68;79.41;99247.25;1046033;28;1582;-69
2021/10/31 20:49:06;;;;;;;;;;;;;;;15.68;79.23;99238.34;1048635;28;1576;-69
2021/10/31 20:49:56;;;;;;;;;;;;;;;15.67;79.63;99240.22;1048623;28;1585;-69
2021/10/31 20:50:46;;;;;;;;;;;;;;;15.67;79.31;99240.22;1048685;28;1471;-69
2021/10/31 20:51:37;;;;;;;;;;;;;;;15.67;79.36;99239.38;1044879;28;1143;-69
2021/10/31 20:52:28;;;;;;;;;;;;;;;15.68;79.50;99249.09;1045317;28;1812;-70
2021/10/31 20:53:19;;;;;;;;;;;;;;;15.66;79.48;99243.91;1050018;28;1957;-70
2021/10/31 20:54:13;;;;;;;;;;;;;;;15.66;79.54;99241.22;1046317;28;707;-70
2021/10/31 20:55:04;;;;;;;;;;;;;;;15.67;79.67;99250.13;1046348;28;803;-70
2021/10/31 20:56:05;;;;;;;;;;;;;;;15.67;79.02;99252.78;1050246;28;846;-70
2021/10/31 20:56:56;;;;;;;;;;;;;;;15.69;79.31;99248.09;1050598;28;888;-72
2021/10/31 20:57:47;;;;;;;;;;;;;;;15.69;79.19;99246.25;1050813;28;767;-66
2021/10/31 20:58:40;;;;;;;;;;;;;;;15.70;79.74;99249.78;1050081;28;734;-72
2021/10/31 20:59:32;;;;;;;;;;;;;;;15.70;79.99;99252.47;1046579;28;756;-73
2021/10/31 21:00:23;;;;;;;;;;;;;;;15.69;79.40;99248.94;1048460;28;1783;-70
2021/10/31 21:01:14;;;;;;;;;;;;;;;15.71;79.43;99256.81;1045956;28;1461;-69
2021/10/31 21:02:05;;;;;;;;;;;;;;;15.70;79.45;99255.97;1045627;28;1486;-72
2021/10/31 21:02:56;;;;;;;;;;;;;;;15.71;79.85;99262.19;1049266;28;1433;-72
2021/10/31 21:03:46;;;;;;;;;;;;;;;15.70;79.82;99253.28;1047578;28;1369;-71
2021/10/31 21:04:36;;;;;;;;;;;;;;;15.70;79.65;99258.66;1049455;28;1509;-72
2021/10/31 21:05:27;;;;;;;;;;;;;;;15.70;79.64;99255.16;1048225;28;1450;-70
2021/10/31 21:06:17;;;;;;;;;;;;;;;15.69;79.66;99257.00;1049852;28;1508;-70
2021/10/31 21:07:09;;;;;;;;;;;;;;;15.69;79.86;99259.69;1048898;28;1537;-72
2021/10/31 21:07:59;;;;;;;;;;;;;;;15.68;79.90;99262.53;1045529;28;1520;-70
2021/10/31 21:08:50;;;;;;;;;;;;;;;15.68;79.80;99257.16;1044010;28;1392;-70
2021/10/31 21:09:40;;;;;;;;;;;;;;;15.68;79.42;99262.53;1049221;28;1462;-68
2021/10/31 21:10:31;;;;;;;;;;;;;;;15.68;79.93;99265.22;1049932;28;1511;-68
2021/10/31 21:11:23;;;;;;;;;;;;;;;15.68;79.48;99270.59;1048600;28;1638;-68
2021/10/31 21:12:14;;;;;;;;;;;;;;;15.67;79.55;99271.59;1047507;28;1747;-69
2021/10/31 21:13:05;;;;;;;;;;;;;;;15.67;79.66;99274.28;1049888;28;1486;-71
2021/10/31 21:13:55;;;;;;;;;;;;;;;15.67;79.66;99271.59;1049688;28;1418;-71
2021/10/31 21:14:46;;;;;;;;;;;;;;;15.67;79.85;99279.66;1048422;28;1458;-71
2021/10/31 21:15:36;;;;;;;;;;;;;;;15.67;79.42;99279.66;1049215;28;1493;-71
2021/10/31 21:16:27;;;;;;;;;;;;;;;15.65;79.41;99279.81;1049562;28;1407;-70
2021/10/31 21:17:17;;;;;;;;;;;;;;;15.66;79.27;99277.97;1048979;28;1492;-71
2021/10/31 21:18:07;;;;;;;;;;;;;;;15.66;79.74;99281.50;1048635;28;1556;-71
2021/10/31 21:18:58;;;;;;;;;;;;;;;15.65;79.18;99281.66;1049716;28;1653;-71
2021/10/31 21:19:49;;;;;;;;;;;;;;;15.65;79.48;99279.81;1047643;28;1408;-71
2021/10/31 21:20:39;;;;;;;;;;;;;;;15.66;79.68;99280.66;1045202;28;1416;-71
2021/10/31 21:21:29;;;;;;;;;;;;;;;15.65;79.48;99289.72;1044400;28;1655;-70
2021/10/31 21:22:20;;;;;;;;;;;;;;;15.65;79.49;99287.88;1047484;28;1505;-70
2021/10/31 21:23:12;;;;;;;;;;;;;;;15.65;79.87;99289.72;1048035;28;1851;-72
2021/10/31 21:24:09;;;;;;;;;;;;;;;15.65;79.62;99290.56;1049264;28;865;-73
2021/10/31 21:25:02;;;;;;;;;;;;;;;15.66;79.42;99277.97;1049549;28;637;-69
2021/10/31 21:25:56;;;;;;;;;;;;;;;15.65;79.69;99289.72;1049458;28;793;-67
2021/10/31 21:26:47;;;;;;;;;;;;;;;15.65;79.45;99281.66;1050656;28;764;-67
2021/10/31 21:27:37;;;;;;;;;;;;;;;15.64;79.96;99288.88;1049520;28;712;-68
2021/10/31 21:28:27;;;;;;;;;;;;;;;15.63;79.78;99287.19;1050044;28;708;-68
2021/10/31 21:29:18;;;;;;;;;;;;;;;15.63;79.92;99288.03;1049360;28;650;-68
2021/10/31 21:30:08;;;;;;;;;;;;;;;15.64;79.78;99283.50;1049448;28;777;-68
2021/10/31 21:30:59;;;;;;;;;;;;;;;15.63;79.70;99289.88;1049319;28;719;-70
2021/10/31 21:31:49;;;;;;;;;;;;;;;15.62;79.52;99286.38;1049497;28;752;-71
2021/10/31 21:32:40;;;;;;;;;;;;;;;15.63;79.39;99288.03;1046875;28;799;-71
2021/10/31 21:33:31;;;;;;;;;;;;;;;15.62;79.91;99288.22;1046722;28;771;-69
2021/10/31 21:34:24;;;;;;;;;;;;;;;15.63;79.28;99289.88;1044563;28;927;-69
2021/10/31 21:35:20;;;;;;;;;;;;;;;15.61;79.57;99287.38;1049383;28;727;-69
2021/10/31 21:36:10;;;;;;;;;;;;;;;15.62;79.36;99294.41;1049933;28;1220;-69
2021/10/31 21:37:01;;;;;;;;;;;;;;;15.61;79.67;99289.22;1047379;28;1895;-69
2021/10/31 21:37:51;;;;;;;;;;;;;;;15.62;79.76;99294.41;1050517;28;778;-69
2021/10/31 21:38:43;;;;;;;;;;;;;;;15.60;79.56;99299.13;1045339;28;1910;-69
2021/10/31 21:39:33;;;;;;;;;;;;;;;15.61;79.65;99295.44;1045905;28;819;-69
2021/10/31 21:40:26;;;;;;;;;;;;;;;15.61;79.23;99295.44;1045719;28;811;-70
2021/10/31 21:41:17;;;;;;;;;;;;;;;15.60;79.14;99301.81;1050607;28;738;-70
2021/10/31 21:42:10;;;;;;;;;;;;;;;15.60;79.23;99298.28;1045893;28;789;-70
2021/10/31 21:43:01;;;;;;;;;;;;;;;15.60;80.00;99306.34;1045257;28;821;-70
2021/10/31 21:43:51;;;;;;;;;;;;;;;15.61;79.31;99299.94;1045360;28;704;-70
2021/10/31 21:44:42;;;;;;;;;;;;;;;15.60;79.83;99309.84;1045210;28;834;-69
2021/10/31 21:45:32;;;;;;;;;;;;;;;15.60;79.79;99309.84;1045335;28;828;-70
2021/10/31 21:46:23;;;;;;;;;;;;;;;15.60;79.56;99307.16;1045157;28;677;-70
2021/10/31 21:47:13;;;;;;;;;;;;;;;15.60;79.40;99309.84;1045149;28;791;-69
2021/10/31 21:48:04;;;;;;;;;;;;;;;15.59;79.92;99308.19;1045828;28;684;-70
2021/10/31 21:48:54;;;;;;;;;;;;;;;15.59;79.52;99307.34;1045094;28;906;-70
2021/10/31 21:49:44;;;;;;;;;;;;;;;15.59;79.32;99308.19;1045384;28;740;-70
2021/10/31 21:50:35;;;;;;;;;;;;;;;15.60;79.74;99312.53;1045176;28;622;-70
2021/10/31 21:51:25;;;;;;;;;;;;;;;15.59;79.13;99307.34;1045229;28;665;-70
2021/10/31 21:52:16;;;;;;;;;;;;;;;15.58;79.43;99306.53;1045067;28;651;-70
2021/10/31 21:53:06;;;;;;;;;;;;;;;15.58;79.50;99305.69;1045774;28;843;-70
2021/10/31 21:53:57;;;;;;;;;;;;;;;15.57;80.01;99304.00;1044801;28;694;-70
2021/10/31 21:54:47;;;;;;;;;;;;;;;15.58;79.80;99311.91;1045279;28;669;-70
2021/10/31 21:55:38;;;;;;;;;;;;;;;15.57;79.58;99310.22;1044455;28;638;-70
2021/10/31 21:56:29;;;;;;;;;;;;;;;15.58;79.59;99316.44;1045227;28;645;-69
2021/10/31 21:57:19;;;;;;;;;;;;;;;15.58;79.43;99321.81;1046277;28;828;-70
2021/10/31 21:58:10;;;;;;;;;;;;;;;15.57;79.33;99320.13;1045970;28;668;-70
2021/10/31 21:59:00;;;;;;;;;;;;;;;15.56;79.63;99319.28;1047021;28;1583;-70
2021/10/31 21:59:51;;;;;;;;;;;;;;;15.57;79.92;99328.19;1046359;28;767;-68
2021/10/31 22:00:41;;;;;;;;;;;;;;;15.56;79.24;99313.91;1046383;28;605;-68
2021/10/31 22:01:31;;;;;;;;;;;;;;;15.57;79.50;99323.66;1046261;28;814;-68
2021/10/31 22:02:22;;;;;;;;;;;;;;;15.56;79.35;99316.59;1046371;28;621;-68
2021/10/31 22:03:14;;;;;;;;;;;;;;;15.56;79.07;99313.91;1046433;28;676;-68
2021/10/31 22:04:04;;;;;;;;;;;;;;;15.56;79.82;99313.06;1045174;28;959;-68
2021/10/31 22:04:55;;;;;;;;;;;;;;;15.55;79.43;99320.28;1049739;28;1783;-68
2021/10/31 22:05:45;;;;;;;;;;;;;;;15.55;79.61;99324.78;1049152;28;971;-68
2021/10/31 22:06:36;;;;;;;;;;;;;;;15.54;79.44;99326.63;1049244;28;605;-68
2021/10/31 22:07:26;;;;;;;;;;;;;;;15.53;79.77;99318.75;1049265;28;720;-68
2021/10/31 22:08:17;;;;;;;;;;;;;;;15.54;79.58;99323.94;1049312;28;603;-68
2021/10/31 22:09:07;;;;;;;;;;;;;;;15.52;79.50;99320.59;1049269;28;637;-68
2021/10/31 22:09:58;;;;;;;;;;;;;;;15.52;79.50;99325.13;1050437;28;842;-68
2021/10/31 22:10:49;;;;;;;;;;;;;;;15.52;79.60;99320.59;1050495;28;684;-68
2021/10/31 22:11:40;;;;;;;;;;;;;;;15.54;79.50;99321.25;1049188;28;733;-68
2021/10/31 22:12:30;;;;;;;;;;;;;;;15.52;79.61;99317.91;1049323;28;725;-68
2021/10/31 22:13:21;;;;;;;;;;;;;;;15.52;79.71;99317.91;1049247;28;649;-68
2021/10/31 22:14:11;;;;;;;;;;;;;;;15.52;79.25;99323.28;1049278;28;765;-68
2021/10/31 22:15:02;;;;;;;;;;;;;;;15.52;79.30;99323.28;1049404;28;609;-68
2021/10/31 22:15:53;;;;;;;;;;;;;;;15.52;79.54;99323.28;1049346;28;756;-72
2021/10/31 22:16:43;;;;;;;;;;;;;;;15.51;79.51;99332.34;1045930;28;625;-72
2021/10/31 22:17:33;;;;;;;;;;;;;;;15.52;79.18;99327.81;1045981;28;573;-72
2021/10/31 22:18:26;;;;;;;;;;;;;;;15.52;79.61;99331.31;1050232;28;732;-72
2021/10/31 22:19:16;;;;;;;;;;;;;;;15.51;79.55;99328.81;1048990;28;1894;-72
2021/10/31 22:20:07;;;;;;;;;;;;;;;15.51;79.23;99326.13;1045893;28;952;-72
2021/10/31 22:20:57;;;;;;;;;;;;;;;15.50;79.35;99325.28;1046137;28;679;-72
2021/10/31 22:21:48;;;;;;;;;;;;;;;15.50;79.41;99329.81;1050344;28;589;-72
2021/10/31 22:22:38;;;;;;;;;;;;;;;15.49;79.37;99320.09;1045798;28;860;-72
2021/10/31 22:23:28;;;;;;;;;;;;;;;15.48;79.74;99324.59;1045999;28;641;-73
2021/10/31 22:24:19;;;;;;;;;;;;;;;15.49;79.19;99334.34;1050279;28;980;-73
2021/10/31 22:25:09;;;;;;;;;;;;;;;15.49;79.76;99331.66;1049373;28;656;-73
2021/10/31 22:26:00;;;;;;;;;;;;;;;15.48;79.08;99332.66;1050477;28;656;-72
2021/10/31 22:26:51;;;;;;;;;;;;;;;15.49;79.39;99333.50;1050275;28;782;-69
2021/10/31 22:27:41;;;;;;;;;;;;;;;15.48;79.28;99321.09;1049212;28;704;-70
2021/10/31 22:28:32;;;;;;;;;;;;;;;15.48;79.25;99326.44;1049766;28;895;-69
2021/10/31 22:29:23;;;;;;;;;;;;;;;15.48;79.40;99323.78;1049929;28;739;-69
2021/10/31 22:30:14;;;;;;;;;;;;;;;15.47;79.51;99320.25;1049334;28;834;-70
2021/10/31 22:31:05;;;;;;;;;;;;;;;15.48;79.46;99321.94;1049399;28;706;-69
2021/10/31 22:31:55;;;;;;;;;;;;;;;15.47;79.77;99328.31;1049172;28;677;-69
2021/10/31 22:32:45;;;;;;;;;;;;;;;15.48;79.85;99327.28;1048963;28;1954;-70
2021/10/31 22:33:36;;;;;;;;;;;;;;;15.48;79.29;99319.25;1049250;28;633;-70
2021/10/31 22:34:26;;;;;;;;;;;;;;;15.48;79.16;99327.28;1049279;28;701;-70
2021/10/31 22:35:17;;;;;;;;;;;;;;;15.48;78.86;99318.41;1049162;28;671;-70
2021/10/31 22:36:08;;;;;;;;;;;;;;;15.47;79.39;99325.63;1049192;28;767;-69
2021/10/31 22:36:58;;;;;;;;;;;;;;;15.48;79.73;99323.78;1049262;28;1315;-70
2021/10/31 22:37:49;;;;;;;;;;;;;;;15.46;79.61;99328.47;1048602;28;794;-70
2021/10/31 22:38:39;;;;;;;;;;;;;;;15.47;79.67;99330.97;1050424;28;749;-70
2021/10/31 22:39:30;;;;;;;;;;;;;;;15.47;79.29;99333.66;1049303;28;1909;-70
2021/10/31 22:40:20;;;;;;;;;;;;;;;15.47;79.64;99325.63;1049277;28;817;-70
2021/10/31 22:41:11;;;;;;;;;;;;;;;15.47;79.53;99328.31;1049233;28;932;-70
2021/10/31 22:42:01;;;;;;;;;;;;;;;15.47;79.39;99328.31;1045895;28;1768;-70
2021/10/31 22:42:51;;;;;;;;;;;;;;;15.46;79.46;99332.00;1043906;28;760;-70
2021/10/31 22:43:42;;;;;;;;;;;;;;;15.46;79.12;99342.72;1044762;28;736;-70
2021/10/31 22:44:33;;;;;;;;;;;;;;;15.47;79.62;99340.88;1044729;28;802;-72
2021/10/31 22:45:23;;;;;;;;;;;;;;;15.48;79.29;99340.72;1049224;28;943;-71
2021/10/31 22:46:14;;;;;;;;;;;;;;;15.47;79.38;99336.34;1049894;28;782;-71
2021/10/31 22:47:04;;;;;;;;;;;;;;;15.47;79.40;99339.03;1048564;28;605;-71
2021/10/31 22:47:55;;;;;;;;;;;;;;;15.46;79.21;99340.03;1048161;28;1799;-71
2021/10/31 22:48:45;;;;;;;;;;;;;;;15.48;79.46;99338.03;1049143;28;712;-71